Kang Man — VRAC3 — position and weather

sailwx.info

Track history (hours):
 
Tides and Currents Weather Stations Pressure Air Temp Water Temp Dewpoint Dewpoint Depression Visibility Wind Speed Wind Dir Waves Ship Positions

Kang Man

Last reported at 2018-Apr-19 07:53 UTC. Time now 2018-Apr-19 19:22 UTC.
Position N 08°05' W 014°38'.

Length 190 m; draft 9.8 m.

Type: Cargo ship. MMSI: 477360500.

Date/timePositionNaut miles runAvg speedWind from/ knotsBaromVisibWave heightAir tempDewpointWater temp
2018-Apr-19 07:53N 08°05' W 014°38'512.3
2018-Apr-19 07:30N 08°08' W 014°42'1312.2
2018-Apr-19 06:25N 08°17' W 014°51'511.9
2018-Apr-19 06:00N 08°21' W 014°55'611.8
2018-Apr-19 05:30N 08°25' W 014°59'711.8
2018-Apr-19 04:57N 08°30' W 015°03'1012.0
2018-Apr-19 04:07N 08°37' W 015°10'1111.9
2018-Apr-19 03:10N 08°45' W 015°18'311.9
2018-Apr-19 02:55N 08°47' W 015°20'611.9
2018-Apr-19 02:27N 08°51' W 015°24'2611.8
2018-Apr-19 00:14N 09°10' W 015°42'311.7
2018-Apr-19 00:00N 09°12' W 015°44'611.6
2018-Apr-18 23:30N 09°17' W 015°48'611.7
2018-Apr-18 23:00N 09°21' W 015°51'611.8
2018-Apr-18 22:30N 09°26' W 015°55'612.0
2018-Apr-18 21:59N 09°31' W 015°59'611.9
2018-Apr-18 21:30N 09°36' W 016°02'612.0
2018-Apr-18 21:00N 09°40' W 016°07'612.0
2018-Apr-18 20:30N 09°44' W 016°11'612.1
2018-Apr-18 20:00N 09°49' W 016°14'612.2
2018-Apr-18 19:31N 09°54' W 016°18'612.3
2018-Apr-18 19:00N 09°59' W 016°22'612.5
2018-Apr-18 18:29N 10°04' W 016°26'612.7
2018-Apr-18 18:00N 10°09' W 016°30'812.9
2018-Apr-18 17:22N 10°15' W 016°35'512.8
2018-Apr-18 17:00N 10°19' W 016°39'612.6
2018-Apr-18 16:30N 10°23' W 016°43'1612.9
2018-Apr-18 15:16N 10°36' W 016°53'413.8
2018-Apr-18 15:00N 10°39' W 016°55'  
2018-Apr-12 10:31N 35°58' W 005°36'010.1
2018-Apr-12 10:29N 35°58' W 005°35'5 9.6
2018-Apr-12 10:00N 35°59' W 005°30'5 8.9
2018-Apr-12 09:30N 36°01' W 005°25'4 7.6
2018-Apr-12 09:00N 36°04' W 005°23'3 6.4
2018-Apr-12 08:30N 36°08' W 005°22'0 0.1
2018-Apr-12 07:56N 36°08' W 005°22'0 0.1
2018-Apr-12 07:23N 36°08' W 005°22'0 0.4
2018-Apr-12 06:56N 36°07' W 005°22'0 0.2
2018-Apr-12 06:20N 36°07' W 005°22'0 0.1
2018-Apr-12 05:50N 36°08' W 005°22'0 0.1
2018-Apr-12 05:29N 36°08' W 005°22'0 0.1
2018-Apr-12 04:56N 36°08' W 005°22'0 0.1
2018-Apr-12 04:26N 36°08' W 005°22'0 0.0
2018-Apr-12 03:56N 36°08' W 005°22'0 0.1
2018-Apr-12 03:26N 36°08' W 005°22'0 0.1
2018-Apr-12 02:50N 36°08' W 005°22'0 0.2
2018-Apr-12 02:29N 36°08' W 005°22'0 0.1
2018-Apr-12 01:59N 36°07' W 005°22'0 0.0
2018-Apr-12 01:26N 36°07' W 005°22'0 0.0
2018-Apr-12 00:56N 36°08' W 005°22'0 0.0
2018-Apr-12 00:20N 36°08' W 005°22'0 0.1
2018-Apr-11 23:56N 36°08' W 005°22'0 0.0
2018-Apr-11 23:26N 36°08' W 005°22'0 0.0
2018-Apr-11 22:56N 36°08' W 005°22'0 0.0
2018-Apr-11 22:20N 36°08' W 005°22'0 0.0
2018-Apr-11 21:59N 36°08' W 005°22'0 0.1
2018-Apr-11 21:26N 36°08' W 005°22'0 0.1
2018-Apr-11 20:56N 36°08' W 005°22'0 0.2
2018-Apr-11 20:29N 36°08' W 005°22'0 0.4
2018-Apr-11 20:00N 36°07' W 005°22'2 3.9
2018-Apr-11 19:31N 36°06' W 005°21'3 6.2
2018-Apr-11 19:00N 36°06' W 005°17'4 8.3
2018-Apr-11 18:31N 36°06' W 005°12'4 8.1
2018-Apr-11 18:00N 36°07' W 005°07'1 0.6
2018-Apr-11 16:29N 36°06' W 005°08'1 2.6
2018-Apr-11 15:57N 36°06' W 005°10'  
Track history (hours):
 
Tides and Currents Weather Stations Pressure Air Temp Water Temp Dewpoint Dewpoint Depression Visibility Wind Speed Wind Dir Waves Ship Positions

Kang Man

Last reported at 2018-Apr-19 07:53 UTC. Time now 2018-Apr-19 19:22 UTC.
Position N 08°05' W 014°38'.

Length 190 m; draft 9.8 m.

Type: Cargo ship. MMSI: 477360500.

Date/timePositionNaut miles runAvg speedWind from/ knotsBaromVisibWave heightAir tempDewpointWater temp
2018-Apr-19 07:53N 08°05' W 014°38'512.3
2018-Apr-19 07:30N 08°08' W 014°42'1312.2
2018-Apr-19 06:25N 08°17' W 014°51'511.9
2018-Apr-19 06:00N 08°21' W 014°55'611.8
2018-Apr-19 05:30N 08°25' W 014°59'711.8
2018-Apr-19 04:57N 08°30' W 015°03'1012.0
2018-Apr-19 04:07N 08°37' W 015°10'1111.9
2018-Apr-19 03:10N 08°45' W 015°18'311.9
2018-Apr-19 02:55N 08°47' W 015°20'611.9
2018-Apr-19 02:27N 08°51' W 015°24'2611.8
2018-Apr-19 00:14N 09°10' W 015°42'311.7
2018-Apr-19 00:00N 09°12' W 015°44'611.6
2018-Apr-18 23:30N 09°17' W 015°48'611.7
2018-Apr-18 23:00N 09°21' W 015°51'611.8
2018-Apr-18 22:30N 09°26' W 015°55'612.0
2018-Apr-18 21:59N 09°31' W 015°59'611.9
2018-Apr-18 21:30N 09°36' W 016°02'612.0
2018-Apr-18 21:00N 09°40' W 016°07'612.0
2018-Apr-18 20:30N 09°44' W 016°11'612.1
2018-Apr-18 20:00N 09°49' W 016°14'612.2
2018-Apr-18 19:31N 09°54' W 016°18'612.3
2018-Apr-18 19:00N 09°59' W 016°22'612.5
2018-Apr-18 18:29N 10°04' W 016°26'612.7
2018-Apr-18 18:00N 10°09' W 016°30'812.9
2018-Apr-18 17:22N 10°15' W 016°35'512.8
2018-Apr-18 17:00N 10°19' W 016°39'612.6
2018-Apr-18 16:30N 10°23' W 016°43'1612.9
2018-Apr-18 15:16N 10°36' W 016°53'413.8
2018-Apr-18 15:00N 10°39' W 016°55'  
2018-Apr-12 10:31N 35°58' W 005°36'010.1
2018-Apr-12 10:29N 35°58' W 005°35'5 9.6
2018-Apr-12 10:00N 35°59' W 005°30'5 8.9
2018-Apr-12 09:30N 36°01' W 005°25'4 7.6
2018-Apr-12 09:00N 36°04' W 005°23'3 6.4
2018-Apr-12 08:30N 36°08' W 005°22'0 0.1
2018-Apr-12 07:56N 36°08' W 005°22'0 0.1
2018-Apr-12 07:23N 36°08' W 005°22'0 0.4
2018-Apr-12 06:56N 36°07' W 005°22'0 0.2
2018-Apr-12 06:20N 36°07' W 005°22'0 0.1
2018-Apr-12 05:50N 36°08' W 005°22'0 0.1
2018-Apr-12 05:29N 36°08' W 005°22'0 0.1
2018-Apr-12 04:56N 36°08' W 005°22'0 0.1
2018-Apr-12 04:26N 36°08' W 005°22'0 0.0
2018-Apr-12 03:56N 36°08' W 005°22'0 0.1
2018-Apr-12 03:26N 36°08' W 005°22'0 0.1
2018-Apr-12 02:50N 36°08' W 005°22'0 0.2
2018-Apr-12 02:29N 36°08' W 005°22'0 0.1
2018-Apr-12 01:59N 36°07' W 005°22'0 0.0
2018-Apr-12 01:26N 36°07' W 005°22'0 0.0
2018-Apr-12 00:56N 36°08' W 005°22'0 0.0
2018-Apr-12 00:20N 36°08' W 005°22'0 0.1
2018-Apr-11 23:56N 36°08' W 005°22'0 0.0
2018-Apr-11 23:26N 36°08' W 005°22'0 0.0
2018-Apr-11 22:56N 36°08' W 005°22'0 0.0
2018-Apr-11 22:20N 36°08' W 005°22'0 0.0
2018-Apr-11 21:59N 36°08' W 005°22'0 0.1
2018-Apr-11 21:26N 36°08' W 005°22'0 0.1
2018-Apr-11 20:56N 36°08' W 005°22'0 0.2
2018-Apr-11 20:29N 36°08' W 005°22'0 0.4
2018-Apr-11 20:00N 36°07' W 005°22'2 3.9
2018-Apr-11 19:31N 36°06' W 005°21'3 6.2
2018-Apr-11 19:00N 36°06' W 005°17'4 8.3
2018-Apr-11 18:31N 36°06' W 005°12'4 8.1
2018-Apr-11 18:00N 36°07' W 005°07'1 0.6
2018-Apr-11 16:29N 36°06' W 005°08'1 2.6
2018-Apr-11 15:57N 36°06' W 005°10'  

Dump ship's entire track history